Flight Track Log - Related Links

Times and Time Zones

All times are in EST time to prevent confusion due to time zone crossing. See the EJM916 flight status page for this flight to view local times or setup timezone preferences in your user account.

Time Position Orientation Groundspeed Altitude Reporting Facility
EST Latitude Longitude Course Direction KTS MPH feet Rate Location/Type
Thu 09:01:25 AM 26.6175 -80.0658 132° Southeast 356 410 7,000  Level Miami Center
Thu 09:02:25 AM 26.6386 -79.9642 77° East 356 410 7,100 50 Climbing Miami Center
Thu 09:03:25 AM 26.6572 -79.8647 78° East 338 389 7,100  Level Miami Center
Thu 09:04:00 AM 26.6667 -79.1948 90° East  Level FlightAware Approximate
Thu 09:04:25 AM 26.6761 -79.7628 78° East 333 383 7,100  Level Miami Center
Thu 09:05:00 AM 26.6104 -79.0713 132° Southeast  Level FlightAware Approximate
Thu 09:05:25 AM 26.6781 -79.6606 89° East 327 376 9,200  Level Miami Center
Thu 09:06:25 AM 26.6758 -79.5511 91° East 337 388 12,500 3,200 Climbing Miami Center
Thu 09:07:25 AM 26.6781 -79.4350 89° East 363 418 15,600 2,700 Climbing Miami Center
Thu 09:08:25 AM 26.6697 -79.3117 94° East 386 444 17,900 2,350 Climbing Miami Center
Thu 09:09:25 AM 26.6128 -79.2128 123° Southeast 403 464 20,300 2,050 Climbing Miami Center
Thu 09:10:25 AM 26.5417 -79.0931 124° Southeast 414 476 22,000 1,750 Climbing Miami Center
Thu 09:11:25 AM 26.4744 -78.9781 123° Southeast 427 491 23,800 1,900 Climbing Miami Center
Thu 09:12:25 AM 26.4072 -78.8631 123° Southeast 439 505 25,800 2,250 Climbing Miami Center
Thu 09:13:25 AM 26.3375 -78.7461 124° Southeast 444 511 28,300 2,350 Climbing Miami Center
Thu 09:14:25 AM 26.2700 -78.6336 124° Southeast 444 511 30,500 1,750 Climbing Miami Center
Thu 09:15:25 AM 26.2214 -78.5011 112° Southeast 444 511 31,800 1,100 Climbing Miami Center
Thu 09:16:25 AM 26.1792 -78.3522 108° East 470 541 32,700 1,000 Climbing Miami Center
Thu 09:17:25 AM 26.1347 -78.2081 109° East 483 556 33,800 850 Climbing Miami Center
Thu 09:18:25 AM 26.0625 -78.0778 122° Southeast 493 567 34,400 600 Climbing Miami Center
Thu 09:19:25 AM 26.0028 -77.9731 122° Southeast 493 567 35,000 800 Climbing Miami Center
Thu 09:20:25 AM 25.9181 -77.8361 125° Southeast 493 567 36,000 1,050 Climbing Miami Center
Thu 09:21:25 AM 25.8394 -77.7083 124° Southeast 499 574 37,100 1,000 Climbing Miami Center
Thu 09:22:25 AM 25.7608 -77.5833 125° Southeast 499 574 38,000 900 Climbing Miami Center
Thu 09:23:25 AM 25.6736 -77.4467 125° Southeast 499 574 38,900 500 Climbing Miami Center
Thu 09:24:25 AM 25.5967 -77.3242 125° Southeast 499 574 39,000 50 Climbing Miami Center
Thu 09:25:25 AM 25.5178 -77.1881 123° Southeast 504 580 39,000  Level Miami Center
Thu 09:26:25 AM 25.4406 -77.0567 123° Southeast 509 586 39,000  Level Miami Center
Thu 09:27:25 AM 25.3592 -76.9256 124° Southeast 514 592 39,000  Level Miami Center
Thu 09:28:25 AM 25.2839 -76.7992 123° Southeast 514 592 39,000  Level Miami Center
Thu 09:29:25 AM 25.2044 -76.6636 123° Southeast 514 592 39,000  Level Miami Center
Thu 09:30:25 AM 25.1289 -76.5328 123° Southeast 514 592 39,000  Level Miami Center
Thu 09:31:25 AM 25.0514 -76.4022 123° Southeast 514 592 39,000  Level Miami Center
Thu 09:32:25 AM 24.9819 -76.2856 123° Southeast 514 592 39,000 200 Level Miami Center
Thu 09:33:25 AM 24.9039 -76.1578 124° Southeast 509 586 39,400 700 Climbing Miami Center
Thu 09:34:25 AM 24.8281 -76.0275 123° Southeast 509 586 40,400 800 Climbing Miami Center
Thu 09:35:25 AM 24.7458 -75.8978 125° Southeast 486 559 41,000 300 Climbing Miami Center
Thu 09:36:25 AM 24.6717 -75.7703 123° Southeast 486 559 41,000  Level Miami Center
Thu 09:37:25 AM 24.5933 -75.6406 124° Southeast 491 565 41,000  Level Miami Center
Thu 09:38:25 AM 24.5150 -75.5136 124° Southeast 491 565 41,000  Level Miami Center
Thu 09:39:25 AM 24.4386 -75.3867 123° Southeast 496 571 41,000  Level Miami Center
Thu 09:40:25 AM 24.3600 -75.2575 124° Southeast 506 582 41,000  Level Miami Center
Thu 09:41:25 AM 24.2961 -75.1533 124° Southeast 506 582 41,000  Level Miami Center
Thu 09:42:25 AM 24.2108 -75.0133 124° Southeast 506 582 41,000  Level Miami Center
Thu 09:43:25 AM 24.1297 -74.8847 125° Southeast 506 582 41,000  Level Miami Center
Thu 09:44:25 AM 24.0528 -74.7586 124° Southeast 506 582 41,000  Level Miami Center
Thu 09:45:25 AM 23.9714 -74.6325 125° Southeast 506 582 41,000  Level Miami Center
Thu 09:46:25 AM 23.8964 -74.5044 123° Southeast 501 577 41,000  Level Miami Center
Thu 09:47:25 AM 23.8172 -74.3808 125° Southeast 501 577 41,000  Level Miami Center
Thu 09:48:25 AM 23.7397 -74.2578 125° Southeast 501 577 41,000  Level Miami Center
Thu 09:49:25 AM 23.6603 -74.1300 124° Southeast 501 577 41,000  Level Miami Center
Thu 09:50:25 AM 23.5828 -74.0069 124° Southeast 501 577 41,000  Level Miami Center
Thu 09:51:25 AM 23.5031 -73.8819 125° Southeast 501 577 41,000  Level Miami Center
Thu 09:52:25 AM 23.4253 -73.7547 124° Southeast 501 577 41,000  Level Miami Center
Thu 09:53:25 AM 23.3411 -73.6300 126° Southeast 501 577 41,000  Level Miami Center
Thu 09:54:25 AM 23.2631 -73.5033 124° Southeast 501 577 41,000  Level Miami Center
Thu 09:55:25 AM 23.1831 -73.3789 125° Southeast 501 577 41,000  Level Miami Center
Thu 09:56:25 AM 23.1006 -73.2522 125° Southeast 506 582 41,000  Level Miami Center
Thu 09:57:25 AM 23.0136 -73.1128 124° Southeast 506 582 41,000  Level Miami Center
Thu 09:58:25 AM 22.9481 -73.0019 123° Southeast 501 577 41,000  Level Miami Center
Thu 09:59:25 AM 22.8656 -72.8803 126° Southeast 501 577 41,000  Level Miami Center
Thu 10:00:25 AM 22.7869 -72.7522 124° Southeast 501 577 41,000  Level Miami Center
Thu 10:01:25 AM 22.7044 -72.6311 126° Southeast 501 577 41,000  Level Miami Center
Thu 10:02:25 AM 22.6236 -72.5078 125° Southeast 501 577 41,000  Level Miami Center
Thu 10:03:25 AM 22.5469 -72.3822 123° Southeast 501 577 41,000  Level Miami Center
Thu 10:04:25 AM 22.4639 -72.2614 127° Southeast 501 577 41,000  Level Miami Center
Thu 10:05:25 AM 22.3847 -72.1319 123° Southeast 506 582 41,000  Level Miami Center
Thu 10:06:25 AM 22.3017 -72.0092 126° Southeast 506 582 41,000  Level Miami Center
Thu 10:07:25 AM 22.2225 -71.8867 125° Southeast 506 582 41,000  Level Miami Center
Thu 10:08:25 AM 22.1411 -71.7642 126° Southeast 506 582 41,000  Level Miami Center
Thu 10:09:25 AM 22.0597 -71.6397 125° Southeast 506 582 41,000  Level Miami Center
Thu 10:10:25 AM 21.9803 -71.5153 125° Southeast 500 575 41,000  Level Miami Center
Thu 10:11:25 AM 21.8989 -71.3914 125° Southeast 505 581 41,000  Level Miami Center
Thu 10:12:25 AM 21.8169 -71.2672 125° Southeast 505 581 41,000  Level Miami Center
Thu 10:13:25 AM 21.7375 -71.1433 125° Southeast 505 581 41,000  Level Miami Center
Thu 10:14:25 AM 21.6533 -71.0175 126° Southeast 505 581 41,000  Level Miami Center
Thu 10:15:25 AM 21.5606 -70.8811 126° Southeast 505 581 41,000  Level Miami Center
Thu 10:16:25 AM 21.4783 -70.7533 125° Southeast 511 588 41,000  Level Miami Center
Thu 10:17:25 AM 21.3919 -70.6303 127° Southeast 511 588 41,000  Level Miami Center
Thu 10:18:25 AM 21.3119 -70.5072 125° Southeast 511 588 41,000  Level Miami Center
Thu 10:19:25 AM 21.2297 -70.3844 126° Southeast 511 588 41,000  Level Miami Center
Thu 10:20:25 AM 21.1453 -70.2597 126° Southeast 511 588 41,000  Level Miami Center
Thu 10:21:25 AM 21.0625 -70.1347 125° Southeast 511 588 41,000  Level Miami Center
Thu 10:22:25 AM 20.9781 -70.0125 126° Southeast 516 594 41,000  Level Miami Center
Thu 10:23:25 AM 20.8978 -69.8925 126° Southeast 510 587 41,000  Level Miami Center
Thu 10:24:25 AM 20.8172 -69.7703 125° Southeast 510 587 41,000  Level Miami Center
Thu 10:25:25 AM 20.7322 -69.6461 126° Southeast 510 587 41,000  Level Miami Center
Thu 10:26:25 AM 20.6517 -69.5267 126° Southeast 510 587 41,000  Level Miami Center
Thu 10:27:25 AM 20.5686 -69.4028 126° Southeast 510 587 41,000  Level Miami Center
Thu 10:28:25 AM 20.4836 -69.2836 127° Southeast 510 587 41,000  Level Miami Center
Thu 10:29:25 AM 20.4028 -69.1644 126° Southeast 510 587 41,000  Level Miami Center
Thu 10:30:25 AM 20.3197 -69.0433 126° Southeast 510 587 41,000  Level Miami Center
Thu 10:31:25 AM 20.2389 -68.9219 125° Southeast 503 579 41,000  Level Miami Center
Thu 10:32:25 AM 20.1597 -68.7986 124° Southeast 503 579 41,000  Level Miami Center
Thu 10:33:25 AM 20.1125 -68.6539 109° East 503 579 41,000  Level Miami Center
Thu 10:34:25 AM 20.0672 -68.5069 108° East 513 590 41,000  Level Miami Center
Thu 10:35:25 AM 20.0181 -68.3644 110° East 513 590 41,000  Level Miami Center
Thu 10:36:25 AM 19.9744 -68.2153 107° East 518 596 41,000  Level Miami Center
Thu 10:37:11 AM 19.9333 -68.1167 114° Southeast 520 598 41,000  Level San Juan Center
Thu 10:38:11 AM 19.8833 -67.9667 109° East 520 598 41,000  Level San Juan Center
Thu 10:39:11 AM 19.8333 -67.8333 112° Southeast 520 598 41,000  Level San Juan Center
Thu 10:40:12 AM 19.7833 -67.6833 109° East 520 598 41,000  Level San Juan Center
Thu 10:41:12 AM 19.7333 -67.5333 109° East 520 598 41,000  Level San Juan Center
Thu 10:42:12 AM 19.6833 -67.4000 112° Southeast 520 598 41,000  Level San Juan Center
Thu 10:43:12 AM 19.6333 -67.2500 109° East 520 598 41,000  Level San Juan Center
Thu 10:44:12 AM 19.5833 -67.1000 109° East 520 598 41,000  Level San Juan Center
Thu 10:45:13 AM 19.5333 -66.9667 112° Southeast 520 598 41,000  Level San Juan Center
Thu 10:46:12 AM 19.4833 -66.8167 109° East 520 598 41,000  Level San Juan Center
Thu 10:47:12 AM 19.4333 -66.6667 109° East 520 598 41,000  Level San Juan Center
Thu 10:48:13 AM 19.3833 -66.5333 112° Southeast 520 598 41,000  Level San Juan Center
Thu 10:49:13 AM 19.3500 -66.3833 103° East 520 598 41,000  Level San Juan Center
Thu 10:50:13 AM 19.3000 -66.2333 109° East 520 598 41,000  Level San Juan Center
Thu 10:51:13 AM 19.2500 -66.0833 109° East 520 598 41,000 -50 Level San Juan Center
Thu 10:52:13 AM 19.1833 -65.9500 118° Southeast 520 598 40,900 -500 Descending San Juan Center
Thu 10:53:13 AM 19.1333 -65.8000 109° East 530 610 40,000 -1,050 Descending San Juan Center
Thu 10:54:13 AM 19.0833 -65.6167 106° East 540 621 38,800 -1,041 Descending San Juan Center
Thu 10:55:14 AM 19.0333 -65.4833 112° Southeast 550 633 37,900 -942 Descending San Juan Center
Thu 10:56:14 AM 18.9833 -65.3333 109° East 540 621 36,900 -1,000 Descending San Juan Center
Thu 10:57:14 AM 18.9333 -65.1833 109° East 540 621 35,900 -1,100 Descending San Juan Center
Thu 10:58:14 AM 18.8667 -65.0167 113° Southeast 540 621 34,700 -1,750 Descending San Juan Center
Thu 10:59:14 AM 18.8167 -64.8833 112° Southeast 530 610 32,400 -2,350 Descending San Juan Center
Thu 11:00:14 AM 18.7667 -64.7500 112° Southeast 510 587 30,000 -2,350 Descending San Juan Center
Thu 11:01:14 AM 18.7167 -64.6000 109° East 510 587 27,700 -2,331 Descending San Juan Center
Thu 11:02:15 AM 18.6667 -64.4667 112° Southeast 500 575 25,300 -2,300 Descending San Juan Center
Thu 11:03:14 AM 18.6167 -64.3333 112° Southeast 480 552 23,100 -2,250 Descending San Juan Center
Thu 11:04:15 AM 18.5833 -64.2000 105° East 460 529 20,800 -2,132 Descending San Juan Center
Thu 11:05:15 AM 18.5333 -64.0833 114° Southeast 440 506 18,800 -2,000 Descending San Juan Center
Thu 11:06:15 AM 18.4833 -63.9667 114° Southeast 430 495 16,800 -1,850 Descending San Juan Center
Thu 11:07:15 AM 18.4500 -63.8667 109° East 390 449 15,100 -1,700 Descending San Juan Center
Thu 11:08:15 AM 18.4167 -63.7500 107° East 400 460 13,400 -1,850 Descending San Juan Center
Thu 11:09:15 AM 18.3833 -63.6500 109° East 370 426 11,400 -2,000 Descending San Juan Center
Thu 11:11:00 AM 18.3065 -63.4329 108° East  Level FlightAware Approximate
Thu 11:18:00 AM 18.2000 -63.0500 90° East  Level FlightAware Approximate
Thu 11:19:00 AM 18.2048 -63.0551 90° East  Level Estimated
Thu 11:20:00 AM 18.2000 -63.0500 90° East  Level FlightAware Approximate
Thu 11:21:00 AM 18.2048 -63.0551 90° East  Level Estimated
Thu 11:22:00 AM 18.2000 -63.0500 90° East  Level FlightAware Approximate
Thu 11:23:00 AM 18.2048 -63.0551 90° East  Level Estimated
Thu 11:24:00 AM 18.2000 -63.0500 90° East  Level FlightAware Approximate
Thu 11:25:00 AM 18.2048 -63.0551 90° East  Level Estimated
Thu 11:26:00 AM 18.2000 -63.0500 90° East  Level FlightAware Approximate
Thu 11:27:00 AM 18.2048 -63.0551 90° East  Level Estimated
Thu 11:28:00 AM 18.2000 -63.0500 90° East  Level FlightAware Approximate
Thu 11:29:00 AM 18.2048 -63.0551 90° East  Level Estimated
Thu 11:30:00 AM 18.2000 -63.0500 90° East  Level FlightAware Approximate
Thu 11:31:00 AM 18.2048 -63.0551 90° East  Level Estimated

Login

Don't have an account? Register now (free) for customized features, flight alerts, and more!